Time;durP1;ratioP1;P1;durP2;ratioP2;P2;SDS_P1;SDS_P2;PMS_P1;PMS_P2;Temp;Humidity;BMP_temperature;BMP_pressure;BME280_temperature;BME280_humidity;BME280_pressure;Samples;Min_cycle;Max_cycle;Signal;HPM_P1;HPM_P2
2024/02/22 00:00:33;;;;;;;1.93;1.83;;;16.00;1.00;;;;;;2613967;54;20678;-56
2024/02/22 00:03:49;;;;;;;1.70;1.60;;;16.00;1.00;;;;;;2614233;54;20384;-57
2024/02/22 00:06:15;;;;;;;2.10;1.90;;;16.00;1.00;;;;;;2613461;47;20194;-53
2024/02/22 00:12:04;;;;;;;1.87;1.77;;;16.00;1.00;;;;;;2614873;54;20171;-56
2024/02/22 00:17:52;;;;;;;1.83;1.73;;;16.00;1.00;;;;;;2614212;54;20412;-57
2024/02/22 00:23:40;;;;;;;1.90;1.80;;;16.00;1.00;;;;;;2614165;54;20414;-56
2024/02/22 00:29:28;;;;;;;2.07;1.77;;;16.00;1.00;;;;;;2614579;54;20153;-56
2024/02/22 00:35:16;;;;;;;1.90;1.77;;;16.00;1.00;;;;;;2615128;31;20637;-56
2024/02/22 00:41:03;;;;;;;1.50;1.40;;;16.00;1.00;;;;;;2614487;54;20656;-57
2024/02/22 00:46:54;;;;;;;2.57;1.60;;;16.00;1.00;;;;;;2615259;39;20553;-55
2024/02/22 00:52:41;;;;;;;1.73;1.63;;;16.00;1.00;;;;;;2615855;54;20395;-56
2024/02/22 00:58:29;;;;;;;1.93;1.67;;;16.00;1.00;;;;;;2615587;54;20131;-50
2024/02/22 01:08:19;;;;;;;1.53;1.43;;;15.90;1.00;;;;;;2616312;39;20761;-54
2024/02/22 01:14:07;;;;;;;1.80;1.70;;;16.00;1.00;;;;;;2615527;54;20439;-53
2024/02/22 01:19:54;;;;;;;1.60;1.50;;;16.00;1.00;;;;;;2615708;54;20148;-51
2024/02/22 01:25:42;;;;;;;1.80;1.70;;;16.00;1.00;;;;;;2615149;54;20253;-54
2024/02/22 01:31:31;;;;;;;1.57;1.47;;;16.00;1.00;;;;;;2615758;54;20180;-54
2024/02/22 01:37:18;;;;;;;1.80;1.70;;;16.00;1.00;;;;;;2615625;39;20779;-52
2024/02/22 01:43:06;;;;;;;2.20;2.00;;;16.00;1.00;;;;;;2615342;54;20138;-55
2024/02/22 01:48:54;;;;;;;1.53;1.30;;;16.00;1.00;;;;;;2614032;54;20157;-57
2024/02/22 01:54:42;;;;;;;1.40;1.30;;;16.00;1.00;;;;;;2614919;54;20414;-58
2024/02/22 02:00:31;;;;;;;1.40;1.20;;;16.00;1.00;;;;;;2614795;54;20170;-58
2024/02/22 02:06:32;;;;;;;1.60;1.50;;;16.00;1.00;;;;;;2612637;47;20387;-57
2024/02/22 02:12:24;;;;;;;1.60;1.50;;;16.00;1.00;;;;;;2612949;54;20137;-54
2024/02/22 02:18:11;;;;;;;1.47;1.37;;;16.00;1.00;;;;;;2613289;54;20558;-56
2024/02/22 02:24:31;;;;;;;1.57;1.37;;;16.00;1.00;;;;;;2613592;54;20719;-56
2024/02/22 02:30:56;;;;;;;1.40;1.30;;;16.00;1.00;;;;;;2613643;39;21084;-55
2024/02/22 02:33:24;;;;;;;1.60;1.50;;;16.00;1.00;;;;;;2614155;39;20822;-55
2024/02/22 02:39:12;;;;;;;1.60;1.50;;;16.00;1.00;;;;;;2613714;54;20401;-56
2024/02/22 02:45:00;;;;;;;1.23;1.13;;;16.00;1.00;;;;;;2615142;54;20366;-56
2024/02/22 02:50:47;;;;;;;1.30;1.20;;;16.00;1.00;;;;;;2614058;54;20682;-53
2024/02/22 02:56:35;;;;;;;1.40;1.30;;;16.00;1.00;;;;;;2615110;54;20136;-55
2024/02/22 03:02:23;;;;;;;1.40;1.30;;;16.00;1.00;;;;;;2615179;39;20380;-53
2024/02/22 03:08:11;;;;;;;1.57;1.47;;;16.00;1.00;;;;;;2614981;54;20655;-52
2024/02/22 03:13:59;;;;;;;1.40;1.30;;;16.00;1.00;;;;;;2616033;31;20634;-54
2024/02/22 03:19:46;;;;;;;1.40;1.30;;;16.00;1.00;;;;;;2615061;54;20130;-54
2024/02/22 03:25:34;;;;;;;1.73;1.40;;;16.00;1.00;;;;;;2615963;39;20513;-54
2024/02/22 03:31:22;;;;;;;1.40;1.30;;;16.00;1.00;;;;;;2614790;54;20145;-58
2024/02/22 03:37:12;;;;;;;1.37;1.27;;;16.00;1.00;;;;;;2614557;54;20492;-57
2024/02/22 03:42:59;;;;;;;1.40;1.30;;;16.00;1.00;;;;;;2614094;54;21196;-49
2024/02/22 03:48:47;;;;;;;1.43;1.33;;;16.00;1.00;;;;;;2614762;54;20121;-53
2024/02/22 03:54:36;;;;;;;1.47;1.37;;;16.00;1.00;;;;;;2614306;54;20134;-56
2024/02/22 04:00:24;;;;;;;1.47;1.37;;;16.00;1.00;;;;;;2614961;54;20430;-57
2024/02/22 04:03:49;;;;;;;1.43;1.33;;;16.00;1.00;;;;;;2614507;54;20422;-57
2024/02/22 04:06:14;;;;;;;1.20;1.10;;;16.00;1.00;;;;;;2614215;54;21303;-55
2024/02/22 04:12:02;;;;;;;1.43;1.33;;;16.00;1.00;;;;;;2613799;54;20173;-57
2024/02/22 04:17:50;;;;;;;1.50;1.40;;;16.00;1.00;;;;;;2614213;39;20607;-57
2024/02/22 04:23:38;;;;;;;1.40;1.30;;;16.00;1.00;;;;;;2614547;54;20420;-58
2024/02/22 04:29:25;;;;;;;1.40;1.30;;;16.00;1.00;;;;;;2615606;54;20122;-59
2024/02/22 04:35:13;;;;;;;1.37;1.20;;;16.00;1.00;;;;;;2615046;54;20110;-58
2024/02/22 04:41:01;;;;;;;1.20;1.10;;;16.00;1.00;;;;;;2615661;54;20380;-56
2024/02/22 04:46:49;;;;;;;1.40;1.30;;;16.00;1.00;;;;;;2615423;54;20730;-59
2024/02/22 04:52:36;;;;;;;1.40;1.30;;;16.00;1.00;;;;;;2615404;54;20126;-55
2024/02/22 04:58:24;;;;;;;1.33;1.23;;;16.00;1.00;;;;;;2614752;54;20123;-56
2024/02/22 05:08:18;;;;;;;1.17;1.07;;;16.00;1.00;;;;;;2614610;54;20453;-55
2024/02/22 05:14:05;;;;;;;1.20;1.10;;;16.00;1.00;;;;;;2615599;54;20833;-55
2024/02/22 05:19:53;;;;;;;1.23;1.13;;;16.00;1.00;;;;;;2614681;54;20137;-56
2024/02/22 05:25:41;;;;;;;1.30;1.20;;;16.00;1.00;;;;;;2615471;54;20149;-56
2024/02/22 05:31:29;;;;;;;1.10;1.00;;;16.00;1.00;;;;;;2615540;54;20393;-55
2024/02/22 05:37:17;;;;;;;1.23;1.13;;;16.00;1.00;;;;;;2615089;54;20130;-54
2024/02/22 05:43:04;;;;;;;1.30;1.20;;;16.00;1.00;;;;;;2614880;54;20145;-55
2024/02/22 05:48:52;;;;;;;1.20;1.10;;;16.00;1.00;;;;;;2614739;54;20163;-53
2024/02/22 05:54:41;;;;;;;1.00;0.90;;;16.00;1.00;;;;;;2615117;54;20135;-54
2024/02/22 06:00:29;;;;;;;1.10;0.97;;;16.00;1.00;;;;;;2614762;54;20402;-54
2024/02/22 06:03:49;;;;;;;1.10;1.00;;;16.00;1.00;;;;;;2615131;54;20965;-54
2024/02/22 06:06:15;;;;;;;1.30;1.20;;;16.00;1.00;;;;;;2615661;39;20621;-57
2024/02/22 06:12:03;;;;;;;1.20;1.10;;;16.00;1.00;;;;;;2615390;54;20399;-57
2024/02/22 06:15:06;;;;;;;1.20;1.10;;;16.00;1.00;;;;;;2614524;54;20415;-55
2024/02/22 06:17:32;;;;;;;1.40;1.30;;;16.00;1.00;;;;;;2615295;54;20375;-55
2024/02/22 06:23:20;;;;;;;0.80;0.80;;;16.00;1.00;;;;;;2615697;39;20780;-54
2024/02/22 06:29:08;;;;;;;1.00;0.90;;;16.00;1.00;;;;;;2613297;54;20162;-55
2024/02/22 06:34:56;;;;;;;1.30;1.00;;;16.00;1.00;;;;;;2614748;54;20137;-53
2024/02/22 06:40:48;;;;;;;0.87;0.87;;;16.00;1.00;;;;;;2615046;54;20673;-56
2024/02/22 06:46:36;;;;;;;1.07;0.87;;;16.00;1.00;;;;;;2614751;54;20412;-55
2024/02/22 06:52:24;;;;;;;1.20;0.90;;;16.00;1.00;;;;;;2614640;54;20747;-56
2024/02/22 06:58:11;;;;;;;0.93;0.80;;;16.00;1.00;;;;;;2614235;39;20529;-56
2024/02/22 07:08:19;;;;;;;1.20;1.10;;;16.00;1.00;;;;;;2614777;54;20482;-56
2024/02/22 07:14:06;;;;;;;1.00;0.90;;;16.00;1.00;;;;;;2614963;54;20422;-56
2024/02/22 07:19:53;;;;;;;1.00;0.90;;;16.00;1.00;;;;;;2614584;54;20135;-55
2024/02/22 07:25:41;;;;;;;1.50;1.13;;;16.00;1.00;;;;;;2612941;54;20709;-55
2024/02/22 07:31:29;;;;;;;1.20;1.10;;;16.00;1.00;;;;;;2615090;54;20151;-56
2024/02/22 07:37:16;;;;;;;1.50;1.07;;;16.00;1.00;;;;;;2614274;54;20250;-56
2024/02/22 07:43:04;;;;;;;1.20;1.10;;;16.00;1.00;;;;;;2613763;54;20152;-55
2024/02/22 07:48:52;;;;;;;1.17;1.07;;;16.00;1.00;;;;;;2615119;39;20558;-54
2024/02/22 07:54:40;;;;;;;1.07;1.00;;;16.00;1.00;;;;;;2614514;54;20387;-55
2024/02/22 08:00:28;;;;;;;1.10;1.00;;;16.00;1.00;;;;;;2613758;54;20148;-55
2024/02/22 08:03:49;;;;;;;1.13;1.00;;;16.00;1.00;;;;;;2614748;54;20387;-53
2024/02/22 08:06:15;;;;;;;1.40;1.10;;;16.00;1.00;;;;;;2613368;54;20223;-55
2024/02/22 08:12:03;;;;;;;1.10;1.00;;;16.00;1.00;;;;;;2614299;54;20549;-54
2024/02/22 08:15:08;;;;;;;1.03;0.93;;;16.00;1.00;;;;;;2615454;39;20816;-53
2024/02/22 08:17:35;;;;;;;1.00;0.90;;;16.00;1.00;;;;;;2614908;54;20432;-55
2024/02/22 08:23:23;;;;;;;0.80;0.80;;;16.00;1.00;;;;;;2614537;54;20491;-53
2024/02/22 08:29:11;;;;;;;1.10;1.00;;;16.10;1.00;;;;;;2613020;54;20117;-55
2024/02/22 08:34:58;;;;;;;1.00;0.90;;;16.00;1.00;;;;;;2614995;54;20127;-52
2024/02/22 08:40:46;;;;;;;0.80;0.80;;;16.10;1.00;;;;;;2614523;54;20133;-52
2024/02/22 08:46:34;;;;;;;0.80;0.70;;;16.00;1.00;;;;;;2614415;54;20154;-52
2024/02/22 08:52:22;;;;;;;0.80;0.80;;;16.10;1.00;;;;;;2613757;54;20392;-52
2024/02/22 08:58:09;;;;;;;1.27;1.10;;;16.10;1.00;;;;;;2614215;54;20153;-53
2024/02/22 09:10:41;;;;;;;0.97;0.87;;;16.10;1.00;;;;;;2614969;39;20790;-53
2024/02/22 09:16:28;;;;;;;0.90;0.80;;;16.10;1.00;;;;;;2615276;54;20176;-52
2024/02/22 09:22:17;;;;;;;1.00;0.90;;;16.10;1.00;;;;;;2615166;54;20649;-52
2024/02/22 09:28:04;;;;;;;0.80;0.80;;;16.10;1.00;;;;;;2615533;54;20413;-50
2024/02/22 09:33:51;;;;;;;1.00;0.90;;;16.10;1.00;;;;;;2614654;54;20127;-54
2024/02/22 09:39:39;;;;;;;1.10;1.00;;;16.10;1.00;;;;;;2614933;39;20467;-51
2024/02/22 09:45:28;;;;;;;1.33;1.00;;;16.10;1.00;;;;;;2615787;39;20780;-56
2024/02/22 09:51:16;;;;;;;1.10;1.00;;;16.10;1.00;;;;;;2614202;54;20932;-55
2024/02/22 09:57:04;;;;;;;1.27;1.00;;;16.10;1.00;;;;;;2615343;39;21039;-54
2024/02/22 10:02:52;;;;;;;1.83;0.97;;;16.10;1.00;;;;;;2615804;39;20936;-53
2024/02/22 10:08:40;;;;;;;1.00;0.90;;;16.10;1.00;;;;;;2615412;54;20742;-53
2024/02/22 10:14:35;;;;;;;1.10;1.00;;;16.10;1.00;;;;;;2614665;54;20122;-53
2024/02/22 10:20:33;;;;;;;1.20;1.10;;;16.10;1.00;;;;;;2615285;54;20385;-52
2024/02/22 10:26:20;;;;;;;0.87;0.80;;;16.10;1.00;;;;;;2614982;54;20390;-52
2024/02/22 10:32:16;;;;;;;0.73;0.70;;;16.10;1.00;;;;;;2615422;39;20591;-52
2024/02/22 10:38:05;;;;;;;0.80;0.70;;;16.10;1.00;;;;;;2613620;54;20429;-51
2024/02/22 10:43:53;;;;;;;1.37;0.93;;;16.20;1.00;;;;;;2615136;54;20391;-55
2024/02/22 10:49:44;;;;;;;0.80;0.73;;;16.20;1.00;;;;;;2615505;39;20767;-55
2024/02/22 10:55:37;;;;;;;1.00;0.90;;;16.20;1.00;;;;;;2615229;54;20349;-53
2024/02/22 11:01:26;;;;;;;0.97;0.80;;;16.20;1.00;;;;;;2614938;54;20978;-52
2024/02/22 11:10:36;;;;;;;0.83;0.70;;;16.30;1.00;;;;;;2615019;54;20450;-54
2024/02/22 11:22:38;;;;;;;1.83;0.90;;;16.40;1.00;;;;;;2614427;54;20961;-54
2024/02/22 11:28:27;;;;;;;0.90;0.80;;;16.40;1.00;;;;;;2614210;54;20138;-55
2024/02/22 11:34:16;;;;;;;1.00;0.90;;;16.30;1.00;;;;;;2614801;54;20366;-55
2024/02/22 11:40:04;;;;;;;1.07;0.97;;;16.30;1.00;;;;;;2614982;54;20427;-56
2024/02/22 11:46:00;;;;;;;1.20;1.10;;;16.30;1.00;;;;;;2614791;54;20399;-53
2024/02/22 11:51:48;;;;;;;1.50;1.10;;;16.30;1.00;;;;;;2614812;54;20960;-56
2024/02/22 11:57:35;;;;;;;0.90;0.80;;;16.30;1.00;;;;;;2614891;54;20484;-54
2024/02/22 12:03:23;;;;;;;1.03;0.93;;;16.30;1.00;;;;;;2614770;39;20526;-56
2024/02/22 12:09:25;;;;;;;0.93;0.83;;;16.40;1.00;;;;;;2613596;54;20160;-52
2024/02/22 12:15:18;;;;;;;1.00;0.90;;;16.40;1.00;;;;;;2614205;39;20678;-51
2024/02/22 12:21:12;;;;;;;0.97;0.80;;;16.60;1.00;;;;;;2613885;54;20379;-52
2024/02/22 12:27:00;;;;;;;0.83;0.70;;;16.70;1.00;;;;;;2613182;54;20965;-52
2024/02/22 12:32:51;;;;;;;0.80;0.70;;;16.70;1.00;;;;;;2612923;54;20387;-54
2024/02/22 12:38:38;;;;;;;0.80;0.70;;;16.60;1.00;;;;;;2612820;54;20523;-53
2024/02/22 12:47:47;;;;;;;1.00;0.90;;;16.50;1.00;;;;;;2615500;54;20411;-53
2024/02/22 12:53:35;;;;;;;1.00;0.80;;;16.50;1.00;;;;;;2615532;54;20263;-51
2024/02/22 12:59:23;;;;;;;0.93;0.80;;;16.50;1.00;;;;;;2615057;54;20226;-52
2024/02/22 13:05:11;;;;;;;1.00;0.90;;;16.50;1.00;;;;;;2615285;54;20154;-52
2024/02/22 13:10:59;;;;;;;1.17;0.90;;;16.50;1.00;;;;;;2614874;54;20960;-53
2024/02/22 13:16:47;;;;;;;0.93;0.80;;;16.50;1.00;;;;;;2615424;54;20385;-53
2024/02/22 13:22:35;;;;;;;0.97;0.87;;;16.50;1.00;;;;;;2615323;54;20169;-50
2024/02/22 13:28:23;;;;;;;0.80;0.70;;;16.50;1.00;;;;;;2614590;54;20415;-56
2024/02/22 13:34:10;;;;;;;1.00;0.90;;;16.50;1.00;;;;;;2615485;54;20679;-56
2024/02/22 13:39:58;;;;;;;1.17;1.03;;;16.40;1.00;;;;;;2615235;54;20130;-54
2024/02/22 13:45:45;;;;;;;0.70;0.70;;;16.40;1.00;;;;;;2615436;54;20138;-56
2024/02/22 13:51:33;;;;;;;1.00;0.70;;;16.40;1.00;;;;;;2614998;54;20172;-54
2024/02/22 13:57:21;;;;;;;0.90;0.80;;;16.40;1.00;;;;;;2615155;54;20125;-55
2024/02/22 14:03:10;;;;;;;0.80;0.70;;;16.40;1.00;;;;;;2614462;54;20391;-54
2024/02/22 14:09:06;;;;;;;0.93;0.73;;;16.40;1.00;;;;;;2613647;54;20446;-55
2024/02/22 14:14:53;;;;;;;0.73;0.70;;;16.40;1.00;;;;;;2613350;54;20429;-56
2024/02/22 14:20:42;;;;;;;1.67;0.80;;;16.40;1.00;;;;;;2613650;54;20142;-55
2024/02/22 14:26:29;;;;;;;0.80;0.70;;;16.40;1.00;;;;;;2613200;54;20558;-50
2024/02/22 14:32:16;;;;;;;1.00;0.80;;;16.40;1.00;;;;;;2613535;54;20150;-54
2024/02/22 14:38:04;;;;;;;0.80;0.80;;;16.40;1.00;;;;;;2613435;54;20219;-56
2024/02/22 14:43:53;;;;;;;0.90;0.70;;;16.30;1.00;;;;;;2613279;54;20512;-55
2024/02/22 14:49:43;;;;;;;0.80;0.70;;;16.30;1.00;;;;;;2615705;39;20795;-54
2024/02/22 14:55:31;;;;;;;0.80;0.70;;;16.30;1.00;;;;;;2614664;39;20819;-55
2024/02/22 15:01:19;;;;;;;0.80;0.70;;;16.30;1.00;;;;;;2613882;39;20369;-54
2024/02/22 15:10:33;;;;;;;0.80;0.70;;;16.30;1.00;;;;;;2614393;54;20396;-54
2024/02/22 15:16:20;;;;;;;1.43;0.70;;;16.30;1.00;;;;;;2613539;54;20963;-55
2024/02/22 15:22:09;;;;;;;1.10;0.80;;;16.30;1.00;;;;;;2614941;54;20114;-52
2024/02/22 15:27:56;;;;;;;0.80;0.80;;;16.30;1.00;;;;;;2615239;54;20417;-55
2024/02/22 15:33:44;;;;;;;1.40;0.90;;;16.30;1.00;;;;;;2614796;54;20156;-55
2024/02/22 15:39:33;;;;;;;0.70;0.60;;;16.30;1.00;;;;;;2615025;54;20163;-55
2024/02/22 15:45:22;;;;;;;1.10;0.77;;;16.30;1.00;;;;;;2613091;54;20418;-55
2024/02/22 15:51:09;;;;;;;1.00;0.77;;;16.30;1.00;;;;;;2613766;54;20391;-55
2024/02/22 15:56:57;;;;;;;1.43;0.93;;;16.30;1.00;;;;;;2614673;54;20160;-55
2024/02/22 16:02:44;;;;;;;0.90;0.80;;;16.30;1.00;;;;;;2614547;54;20153;-55
2024/02/22 16:06:04;;;;;;;0.80;0.80;;;16.30;1.00;;;;;;2614415;54;20494;-55
2024/02/22 16:08:30;;;;;;;0.70;0.60;;;16.30;1.00;;;;;;2614601;54;20153;-54
2024/02/22 16:14:18;;;;;;;3.80;0.70;;;16.30;1.00;;;;;;2613947;54;20145;-55
2024/02/22 16:20:07;;;;;;;0.83;0.60;;;16.30;1.00;;;;;;2615406;54;20223;-53
2024/02/22 16:25:54;;;;;;;0.70;0.60;;;16.30;1.00;;;;;;2612921;54;20400;-56
2024/02/22 16:31:42;;;;;;;0.80;0.70;;;16.30;1.00;;;;;;2615903;39;20609;-55
2024/02/22 16:37:29;;;;;;;1.00;0.70;;;16.20;1.00;;;;;;2615133;54;20803;-55
2024/02/22 16:43:17;;;;;;;0.90;0.70;;;16.20;1.00;;;;;;2614699;54;20122;-56
2024/02/22 16:49:05;;;;;;;0.90;0.70;;;16.20;1.00;;;;;;2616284;39;20611;-56
2024/02/22 16:54:52;;;;;;;0.93;0.83;;;16.20;1.00;;;;;;2615230;54;20153;-53
2024/02/22 17:00:40;;;;;;;0.80;0.60;;;16.20;1.00;;;;;;2615454;54;20182;-54
2024/02/22 17:10:30;;;;;;;0.80;0.60;;;16.20;1.00;;;;;;2615422;39;20826;-53
2024/02/22 17:16:18;;;;;;;0.80;0.60;;;16.20;1.00;;;;;;2615320;54;20415;-51
2024/02/22 17:22:06;;;;;;;1.03;0.87;;;16.20;1.00;;;;;;2615787;54;20383;-53
2024/02/22 17:27:53;;;;;;;1.17;1.07;;;16.20;1.00;;;;;;2615488;54;20755;-51
2024/02/22 17:33:41;;;;;;;1.07;0.70;;;16.20;1.00;;;;;;2614642;54;20138;-52
2024/02/22 17:39:30;;;;;;;0.97;0.80;;;16.20;1.00;;;;;;2615239;54;20168;-55
2024/02/22 17:45:17;;;;;;;0.93;0.90;;;16.20;1.00;;;;;;2614974;54;20917;-55
2024/02/22 17:51:05;;;;;;;1.20;0.90;;;16.20;1.00;;;;;;2615469;54;20126;-58
2024/02/22 17:56:53;;;;;;;0.90;0.90;;;16.20;1.00;;;;;;2614132;54;20139;-59
2024/02/22 18:02:41;;;;;;;0.73;0.70;;;16.20;1.00;;;;;;2615276;54;20119;-56
2024/02/22 18:06:04;;;;;;;1.20;1.10;;;16.20;1.00;;;;;;2614406;39;20830;-57
2024/02/22 18:08:31;;;;;;;1.57;0.80;;;16.20;1.00;;;;;;2614981;54;20422;-57
2024/02/22 18:14:18;;;;;;;0.90;0.80;;;16.20;1.00;;;;;;2615538;39;20769;-57
2024/02/22 18:20:07;;;;;;;1.73;1.00;;;16.20;1.00;;;;;;2615491;39;20575;-56
2024/02/22 18:25:55;;;;;;;1.10;0.90;;;16.20;1.00;;;;;;2614916;54;20432;-54
2024/02/22 18:31:43;;;;;;;1.67;1.27;;;16.20;1.00;;;;;;2615086;54;20134;-55
2024/02/22 18:37:31;;;;;;;1.00;0.90;;;16.20;1.00;;;;;;2615204;54;20412;-54
2024/02/22 18:43:19;;;;;;;1.53;1.00;;;16.20;1.00;;;;;;2614261;54;20391;-55
2024/02/22 18:49:07;;;;;;;1.30;1.20;;;16.20;1.00;;;;;;2615130;54;20147;-57
2024/02/22 18:54:54;;;;;;;0.90;0.80;;;16.20;1.00;;;;;;2613882;54;20159;-54
2024/02/22 19:00:42;;;;;;;0.80;0.70;;;16.20;1.00;;;;;;2615085;54;20115;-57
2024/02/22 19:10:33;;;;;;;1.37;1.00;;;16.20;1.00;;;;;;2614695;54;20363;-55
2024/02/22 19:16:24;;;;;;;0.80;0.70;;;16.20;1.00;;;;;;2615161;54;20415;-53
2024/02/22 19:22:11;;;;;;;1.00;0.90;;;16.20;1.00;;;;;;2615618;31;20910;-57
2024/02/22 19:27:59;;;;;;;1.10;1.00;;;16.20;1.00;;;;;;2614617;54;20230;-54
2024/02/22 19:33:47;;;;;;;2.50;1.13;;;16.20;1.00;;;;;;2614930;54;20122;-55
2024/02/22 19:39:38;;;;;;;2.10;0.93;;;16.20;1.00;;;;;;2614860;54;20390;-54
2024/02/22 19:45:27;;;;;;;1.20;1.10;;;16.20;1.00;;;;;;2614944;54;20896;-55
2024/02/22 19:51:15;;;;;;;1.00;0.90;;;16.20;1.00;;;;;;2614943;54;20390;-51
2024/02/22 19:57:03;;;;;;;0.80;0.80;;;16.20;1.00;;;;;;2615333;39;20671;-55
2024/02/22 20:02:53;;;;;;;0.80;0.80;;;16.20;1.00;;;;;;2613505;54;20149;-55
2024/02/22 20:06:04;;;;;;;1.10;1.00;;;16.20;1.00;;;;;;2614041;54;20450;-55
2024/02/22 20:08:29;;;;;;;1.07;0.90;;;16.20;1.00;;;;;;2613188;54;20430;-55
2024/02/22 20:14:17;;;;;;;1.00;0.90;;;16.20;1.00;;;;;;2614799;54;20657;-55
2024/02/22 20:20:05;;;;;;;1.43;1.33;;;16.10;1.00;;;;;;2615612;39;20909;-53
2024/02/22 20:25:52;;;;;;;1.00;0.90;;;16.10;1.00;;;;;;2614514;54;20145;-58
2024/02/22 20:31:42;;;;;;;1.10;1.00;;;16.10;1.00;;;;;;2615307;54;20215;-56
2024/02/22 20:37:29;;;;;;;1.40;0.97;;;16.10;1.00;;;;;;2613638;54;20450;-58
2024/02/22 20:43:18;;;;;;;0.90;0.90;;;16.10;1.00;;;;;;2614760;54;20651;-57
2024/02/22 20:49:05;;;;;;;1.73;1.23;;;16.10;1.00;;;;;;2613958;54;20938;-58
2024/02/22 20:54:53;;;;;;;1.40;1.30;;;16.10;1.00;;;;;;2614543;54;20122;-58
2024/02/22 21:00:40;;;;;;;1.77;1.30;;;16.10;1.00;;;;;;2613802;54;20195;-56
2024/02/22 21:10:31;;;;;;;2.77;1.20;;;16.10;1.00;;;;;;2614286;39;20824;-55
2024/02/22 21:16:29;;;;;;;1.13;1.03;;;16.10;1.00;;;;;;2615287;54;20386;-56
2024/02/22 21:22:20;;;;;;;1.13;1.03;;;16.10;1.00;;;;;;2615162;54;20494;-54
2024/02/22 21:28:08;;;;;;;1.00;0.80;;;16.10;1.00;;;;;;2616056;39;20862;-56
2024/02/22 21:33:58;;;;;;;2.27;1.40;;;16.10;1.00;;;;;;2615376;54;21078;-55
2024/02/22 21:37:01;;;;;;;3.20;1.40;;;16.10;1.00;;;;;;2614684;54;20418;-57
2024/02/22 21:39:27;;;;;;;1.57;1.03;;;16.10;1.00;;;;;;2615250;54;20961;-54
2024/02/22 21:45:14;;;;;;;1.10;1.00;;;16.10;1.00;;;;;;2615256;54;20822;-48
2024/02/22 21:51:07;;;;;;;1.60;1.50;;;16.10;1.00;;;;;;2615197;54;20240;-53
2024/02/22 21:56:54;;;;;;;1.10;1.00;;;16.10;1.00;;;;;;2615286;54;20508;-56
2024/02/22 22:02:42;;;;;;;1.20;1.00;;;16.10;1.00;;;;;;2615194;54;20157;-56
2024/02/22 22:06:04;;;;;;;1.23;0.97;;;16.10;1.00;;;;;;2615397;54;20412;-54
2024/02/22 22:08:30;;;;;;;4.47;1.50;;;16.10;1.00;;;;;;2615265;54;20161;-53
2024/02/22 22:14:18;;;;;;;2.40;1.10;;;16.10;1.00;;;;;;2614931;54;20146;-54
2024/02/22 22:20:07;;;;;;;1.90;1.30;;;16.10;1.00;;;;;;2615725;54;20680;-56
2024/02/22 22:25:54;;;;;;;1.77;1.10;;;16.00;1.00;;;;;;2615077;54;20387;-56
2024/02/22 22:31:45;;;;;;;1.13;1.03;;;16.00;1.00;;;;;;2615285;54;20396;-56
2024/02/22 22:37:33;;;;;;;1.30;1.10;;;16.10;1.00;;;;;;2615247;54;20398;-56
2024/02/22 22:43:20;;;;;;;1.00;0.90;;;16.00;1.00;;;;;;2614981;54;20168;-54
2024/02/22 22:49:08;;;;;;;1.97;1.00;;;16.10;1.00;;;;;;2615278;54;20137;-53
2024/02/22 22:54:55;;;;;;;2.23;1.50;;;16.00;1.00;;;;;;2614524;54;20745;-53
2024/02/22 23:00:43;;;;;;;1.30;1.20;;;16.00;1.00;;;;;;2613422;54;20130;-52
2024/02/22 23:10:34;;;;;;;1.77;0.93;;;16.00;1.00;;;;;;2614182;54;20436;-54
2024/02/22 23:16:22;;;;;;;1.63;1.27;;;16.00;1.00;;;;;;2614656;54;20383;-55
2024/02/22 23:22:09;;;;;;;1.40;1.10;;;16.00;1.00;;;;;;2614609;54;20234;-52
2024/02/22 23:27:57;;;;;;;1.60;1.10;;;16.00;1.00;;;;;;2615009;39;20342;-54
2024/02/22 23:33:45;;;;;;;1.97;1.00;;;16.00;1.00;;;;;;2614919;54;20690;-54
2024/02/22 23:39:33;;;;;;;1.43;0.93;;;16.00;1.00;;;;;;2615353;39;20687;-54
2024/02/22 23:45:20;;;;;;;1.60;1.50;;;16.00;1.00;;;;;;2613308;54;20137;-54
2024/02/22 23:51:11;;;;;;;2.43;1.20;;;16.00;1.00;;;;;;2614973;54;20149;-55
2024/02/22 23:56:59;;;;;;;1.13;1.03;;;16.00;1.00;;;;;;2614973;54;20884;-52
